sensor_id;sensor_type;location;lat;lon;timestamp;P1;durP1;ratioP1;P2;durP2;ratioP2
37047;SDS011;23227;48.780;9.210;2022-10-16T00:00:49;3.75;;;1.20;;
37047;SDS011;23227;48.780;9.210;2022-10-16T00:03:52;2.97;;;1.30;;
37047;SDS011;23227;48.780;9.210;2022-10-16T00:06:55;2.08;;;1.58;;
37047;SDS011;23227;48.780;9.210;2022-10-16T00:09:59;3.47;;;1.40;;
37047;SDS011;23227;48.780;9.210;2022-10-16T00:13:02;4.07;;;1.33;;
37047;SDS011;23227;48.780;9.210;2022-10-16T00:16:06;2.27;;;1.43;;
37047;SDS011;23227;48.780;9.210;2022-10-16T00:22:12;8.57;;;1.80;;
37047;SDS011;23227;48.780;9.210;2022-10-16T00:25:16;4.15;;;1.35;;
37047;SDS011;23227;48.780;9.210;2022-10-16T00:28:19;8.87;;;2.10;;
37047;SDS011;23227;48.780;9.210;2022-10-16T00:31:22;6.28;;;1.38;;
37047;SDS011;23227;48.780;9.210;2022-10-16T00:37:28;17.37;;;2.70;;
37047;SDS011;23227;48.780;9.210;2022-10-16T00:43:37;1.63;;;1.20;;
37047;SDS011;23227;48.780;9.210;2022-10-16T00:46:42;3.67;;;1.50;;
37047;SDS011;23227;48.780;9.210;2022-10-16T00:49:45;4.07;;;1.50;;
37047;SDS011;23227;48.780;9.210;2022-10-16T00:52:48;2.40;;;1.17;;
37047;SDS011;23227;48.780;9.210;2022-10-16T00:55:54;3.37;;;1.63;;
37047;SDS011;23227;48.780;9.210;2022-10-16T00:58:57;3.67;;;1.57;;
37047;SDS011;23227;48.780;9.210;2022-10-16T01:02:01;5.30;;;1.40;;
37047;SDS011;23227;48.780;9.210;2022-10-16T01:05:05;3.07;;;1.20;;
37047;SDS011;23227;48.780;9.210;2022-10-16T01:11:17;3.13;;;1.38;;
37047;SDS011;23227;48.780;9.210;2022-10-16T01:14:25;5.93;;;1.33;;
37047;SDS011;23227;48.780;9.210;2022-10-16T01:17:31;1.87;;;1.40;;
37047;SDS011;23227;48.780;9.210;2022-10-16T01:20:37;2.00;;;1.20;;
37047;SDS011;23227;48.780;9.210;2022-10-16T01:23:46;5.30;;;1.77;;
37047;SDS011;23227;48.780;9.210;2022-10-16T01:27:12;1.80;;;1.17;;
37047;SDS011;23227;48.780;9.210;2022-10-16T01:30:16;3.17;;;1.30;;
37047;SDS011;23227;48.780;9.210;2022-10-16T01:33:24;6.50;;;1.20;;
37047;SDS011;23227;48.780;9.210;2022-10-16T01:36:31;5.03;;;1.20;;
37047;SDS011;23227;48.780;9.210;2022-10-16T01:39:38;11.03;;;1.40;;
37047;SDS011;23227;48.780;9.210;2022-10-16T01:42:44;4.40;;;1.10;;
37047;SDS011;23227;48.780;9.210;2022-10-16T01:45:49;8.33;;;1.40;;
37047;SDS011;23227;48.780;9.210;2022-10-16T01:48:52;2.17;;;1.05;;
37047;SDS011;23227;48.780;9.210;2022-10-16T01:54:59;6.87;;;1.40;;
37047;SDS011;23227;48.780;9.210;2022-10-16T01:58:05;4.83;;;1.53;;
37047;SDS011;23227;48.780;9.210;2022-10-16T02:01:09;3.43;;;1.60;;
37047;SDS011;23227;48.780;9.210;2022-10-16T02:04:15;4.47;;;1.37;;
37047;SDS011;23227;48.780;9.210;2022-10-16T02:07:21;4.43;;;1.90;;
37047;SDS011;23227;48.780;9.210;2022-10-16T02:13:34;5.20;;;1.97;;
37047;SDS011;23227;48.780;9.210;2022-10-16T02:16:40;5.33;;;1.83;;
37047;SDS011;23227;48.780;9.210;2022-10-16T02:19:44;7.00;;;2.30;;
37047;SDS011;23227;48.780;9.210;2022-10-16T02:22:48;11.97;;;4.77;;
37047;SDS011;23227;48.780;9.210;2022-10-16T02:25:52;13.10;;;5.30;;
37047;SDS011;23227;48.780;9.210;2022-10-16T02:28:59;13.67;;;4.13;;
37047;SDS011;23227;48.780;9.210;2022-10-16T02:32:06;8.03;;;3.60;;
37047;SDS011;23227;48.780;9.210;2022-10-16T02:35:10;10.40;;;3.97;;
37047;SDS011;23227;48.780;9.210;2022-10-16T02:38:13;7.68;;;3.15;;
37047;SDS011;23227;48.780;9.210;2022-10-16T02:41:16;6.77;;;3.27;;
37047;SDS011;23227;48.780;9.210;2022-10-16T02:44:20;10.15;;;3.15;;
37047;SDS011;23227;48.780;9.210;2022-10-16T02:47:23;6.93;;;3.50;;
37047;SDS011;23227;48.780;9.210;2022-10-16T02:50:26;10.65;;;3.28;;
37047;SDS011;23227;48.780;9.210;2022-10-16T02:53:29;10.10;;;3.65;;
37047;SDS011;23227;48.780;9.210;2022-10-16T02:56:32;8.23;;;3.80;;
37047;SDS011;23227;48.780;9.210;2022-10-16T02:59:36;7.38;;;4.57;;
37047;SDS011;23227;48.780;9.210;2022-10-16T03:02:39;14.50;;;5.63;;
37047;SDS011;23227;48.780;9.210;2022-10-16T03:05:43;8.63;;;4.68;;
37047;SDS011;23227;48.780;9.210;2022-10-16T03:08:46;7.40;;;3.40;;
37047;SDS011;23227;48.780;9.210;2022-10-16T03:11:49;4.55;;;2.70;;
37047;SDS011;23227;48.780;9.210;2022-10-16T03:14:54;5.47;;;2.00;;
37047;SDS011;23227;48.780;9.210;2022-10-16T03:17:57;5.03;;;1.90;;
37047;SDS011;23227;48.780;9.210;2022-10-16T03:21:00;2.55;;;1.92;;
37047;SDS011;23227;48.780;9.210;2022-10-16T03:24:03;3.28;;;1.85;;
37047;SDS011;23227;48.780;9.210;2022-10-16T03:30:11;8.20;;;1.33;;
37047;SDS011;23227;48.780;9.210;2022-10-16T03:33:14;4.80;;;1.73;;
37047;SDS011;23227;48.780;9.210;2022-10-16T03:36:16;8.52;;;1.58;;
37047;SDS011;23227;48.780;9.210;2022-10-16T03:39:19;10.88;;;1.30;;
37047;SDS011;23227;48.780;9.210;2022-10-16T03:42:22;3.22;;;1.33;;
37047;SDS011;23227;48.780;9.210;2022-10-16T03:48:29;4.70;;;1.20;;
37047;SDS011;23227;48.780;9.210;2022-10-16T03:51:33;6.17;;;1.23;;
37047;SDS011;23227;48.780;9.210;2022-10-16T03:54:36;6.63;;;0.90;;
37047;SDS011;23227;48.780;9.210;2022-10-16T03:57:38;1.33;;;0.80;;
37047;SDS011;23227;48.780;9.210;2022-10-16T04:00:42;10.57;;;1.02;;
37047;SDS011;23227;48.780;9.210;2022-10-16T04:03:45;4.03;;;1.00;;
37047;SDS011;23227;48.780;9.210;2022-10-16T04:06:48;11.50;;;1.50;;
37047;SDS011;23227;48.780;9.210;2022-10-16T04:09:51;4.45;;;1.00;;
37047;SDS011;23227;48.780;9.210;2022-10-16T04:15:58;6.30;;;1.40;;
37047;SDS011;23227;48.780;9.210;2022-10-16T04:19:00;3.90;;;1.10;;
37047;SDS011;23227;48.780;9.210;2022-10-16T04:22:03;3.40;;;1.23;;
37047;SDS011;23227;48.780;9.210;2022-10-16T04:25:06;4.85;;;0.90;;
37047;SDS011;23227;48.780;9.210;2022-10-16T04:28:09;1.27;;;0.97;;
37047;SDS011;23227;48.780;9.210;2022-10-16T04:31:13;5.05;;;1.17;;
37047;SDS011;23227;48.780;9.210;2022-10-16T04:34:16;5.60;;;1.20;;
37047;SDS011;23227;48.780;9.210;2022-10-16T04:37:19;10.95;;;2.38;;
37047;SDS011;23227;48.780;9.210;2022-10-16T04:40:26;3.03;;;1.60;;
37047;SDS011;23227;48.780;9.210;2022-10-16T04:43:29;3.63;;;1.80;;
37047;SDS011;23227;48.780;9.210;2022-10-16T04:46:33;17.33;;;5.70;;
37047;SDS011;23227;48.780;9.210;2022-10-16T04:49:35;8.37;;;3.13;;
37047;SDS011;23227;48.780;9.210;2022-10-16T04:52:38;14.90;;;3.35;;
37047;SDS011;23227;48.780;9.210;2022-10-16T04:55:41;14.38;;;5.45;;
37047;SDS011;23227;48.780;9.210;2022-10-16T04:58:44;13.13;;;3.37;;
37047;SDS011;23227;48.780;9.210;2022-10-16T05:01:49;5.95;;;3.30;;
37047;SDS011;23227;48.780;9.210;2022-10-16T05:04:51;7.37;;;2.83;;
37047;SDS011;23227;48.780;9.210;2022-10-16T05:07:54;7.53;;;3.40;;
37047;SDS011;23227;48.780;9.210;2022-10-16T05:10:57;12.70;;;3.58;;
37047;SDS011;23227;48.780;9.210;2022-10-16T05:14:00;11.75;;;6.03;;
37047;SDS011;23227;48.780;9.210;2022-10-16T05:17:04;4.47;;;2.22;;
37047;SDS011;23227;48.780;9.210;2022-10-16T05:20:07;12.67;;;3.40;;
37047;SDS011;23227;48.780;9.210;2022-10-16T05:23:10;15.85;;;4.57;;
37047;SDS011;23227;48.780;9.210;2022-10-16T05:26:13;15.47;;;5.60;;
37047;SDS011;23227;48.780;9.210;2022-10-16T05:29:16;12.82;;;5.30;;
37047;SDS011;23227;48.780;9.210;2022-10-16T05:32:20;8.25;;;4.90;;
37047;SDS011;23227;48.780;9.210;2022-10-16T05:35:23;12.60;;;4.60;;
37047;SDS011;23227;48.780;9.210;2022-10-16T05:38:26;5.28;;;2.67;;
37047;SDS011;23227;48.780;9.210;2022-10-16T05:41:28;5.30;;;2.05;;
37047;SDS011;23227;48.780;9.210;2022-10-16T05:44:31;8.18;;;2.95;;
37047;SDS011;23227;48.780;9.210;2022-10-16T05:47:40;9.30;;;2.60;;
37047;SDS011;23227;48.780;9.210;2022-10-16T05:50:43;7.03;;;2.20;;
37047;SDS011;23227;48.780;9.210;2022-10-16T05:53:46;5.72;;;1.48;;
37047;SDS011;23227;48.780;9.210;2022-10-16T05:56:48;10.95;;;1.70;;
37047;SDS011;23227;48.780;9.210;2022-10-16T05:59:51;11.30;;;1.70;;
37047;SDS011;23227;48.780;9.210;2022-10-16T06:02:56;2.50;;;1.23;;
37047;SDS011;23227;48.780;9.210;2022-10-16T06:05:58;2.03;;;1.10;;
37047;SDS011;23227;48.780;9.210;2022-10-16T06:09:02;1.83;;;0.90;;
37047;SDS011;23227;48.780;9.210;2022-10-16T06:12:05;6.80;;;1.17;;
37047;SDS011;23227;48.780;9.210;2022-10-16T06:15:08;2.45;;;1.42;;
37047;SDS011;23227;48.780;9.210;2022-10-16T06:18:12;2.35;;;1.15;;
37047;SDS011;23227;48.780;9.210;2022-10-16T06:21:16;2.30;;;1.00;;
37047;SDS011;23227;48.780;9.210;2022-10-16T06:24:21;7.57;;;1.53;;
37047;SDS011;23227;48.780;9.210;2022-10-16T06:27:23;8.18;;;1.60;;
37047;SDS011;23227;48.780;9.210;2022-10-16T06:30:26;3.35;;;1.20;;
37047;SDS011;23227;48.780;9.210;2022-10-16T06:33:30;9.57;;;1.40;;
37047;SDS011;23227;48.780;9.210;2022-10-16T06:36:33;4.03;;;1.33;;
37047;SDS011;23227;48.780;9.210;2022-10-16T06:39:36;7.30;;;1.33;;
37047;SDS011;23227;48.780;9.210;2022-10-16T06:42:39;3.85;;;2.05;;
37047;SDS011;23227;48.780;9.210;2022-10-16T06:45:41;5.07;;;1.48;;
37047;SDS011;23227;48.780;9.210;2022-10-16T06:48:45;5.30;;;1.58;;
37047;SDS011;23227;48.780;9.210;2022-10-16T06:51:48;7.03;;;1.70;;
37047;SDS011;23227;48.780;9.210;2022-10-16T06:54:51;8.20;;;1.15;;
37047;SDS011;23227;48.780;9.210;2022-10-16T06:57:54;3.42;;;1.50;;
37047;SDS011;23227;48.780;9.210;2022-10-16T07:00:57;4.22;;;1.50;;
37047;SDS011;23227;48.780;9.210;2022-10-16T07:04:01;5.40;;;2.75;;
37047;SDS011;23227;48.780;9.210;2022-10-16T07:07:04;5.93;;;1.60;;
37047;SDS011;23227;48.780;9.210;2022-10-16T07:10:09;6.83;;;1.53;;
37047;SDS011;23227;48.780;9.210;2022-10-16T07:13:12;4.32;;;1.55;;
37047;SDS011;23227;48.780;9.210;2022-10-16T07:16:16;5.28;;;1.60;;
37047;SDS011;23227;48.780;9.210;2022-10-16T07:19:21;5.03;;;1.60;;
37047;SDS011;23227;48.780;9.210;2022-10-16T07:22:23;2.67;;;1.70;;
37047;SDS011;23227;48.780;9.210;2022-10-16T07:25:27;6.28;;;1.63;;
37047;SDS011;23227;48.780;9.210;2022-10-16T07:28:30;8.23;;;3.05;;
37047;SDS011;23227;48.780;9.210;2022-10-16T07:31:33;4.73;;;1.77;;
37047;SDS011;23227;48.780;9.210;2022-10-16T07:34:37;9.52;;;2.03;;
37047;SDS011;23227;48.780;9.210;2022-10-16T07:37:43;6.70;;;1.90;;
37047;SDS011;23227;48.780;9.210;2022-10-16T07:40:46;2.60;;;1.70;;
37047;SDS011;23227;48.780;9.210;2022-10-16T07:43:49;4.57;;;1.50;;
37047;SDS011;23227;48.780;9.210;2022-10-16T07:46:53;6.63;;;1.67;;
37047;SDS011;23227;48.780;9.210;2022-10-16T07:49:57;6.30;;;1.42;;
37047;SDS011;23227;48.780;9.210;2022-10-16T07:53:00;6.53;;;1.43;;
37047;SDS011;23227;48.780;9.210;2022-10-16T07:56:04;2.85;;;1.35;;
37047;SDS011;23227;48.780;9.210;2022-10-16T07:59:08;9.37;;;1.60;;
37047;SDS011;23227;48.780;9.210;2022-10-16T08:02:10;6.28;;;1.80;;
37047;SDS011;23227;48.780;9.210;2022-10-16T08:05:14;3.88;;;1.40;;
37047;SDS011;23227;48.780;9.210;2022-10-16T08:08:17;2.53;;;1.60;;
37047;SDS011;23227;48.780;9.210;2022-10-16T08:14:24;2.95;;;1.35;;
37047;SDS011;23227;48.780;9.210;2022-10-16T08:17:27;4.40;;;1.70;;
37047;SDS011;23227;48.780;9.210;2022-10-16T08:20:31;5.97;;;1.45;;
37047;SDS011;23227;48.780;9.210;2022-10-16T08:23:34;6.60;;;1.50;;
37047;SDS011;23227;48.780;9.210;2022-10-16T08:26:37;3.10;;;1.73;;
37047;SDS011;23227;48.780;9.210;2022-10-16T08:29:40;4.40;;;1.70;;
37047;SDS011;23227;48.780;9.210;2022-10-16T08:32:42;2.97;;;1.10;;
37047;SDS011;23227;48.780;9.210;2022-10-16T08:35:51;3.03;;;1.10;;
37047;SDS011;23227;48.780;9.210;2022-10-16T08:38:55;7.77;;;1.20;;
37047;SDS011;23227;48.780;9.210;2022-10-16T08:42:11;5.13;;;1.30;;
37047;SDS011;23227;48.780;9.210;2022-10-16T08:45:23;10.60;;;1.27;;
37047;SDS011;23227;48.780;9.210;2022-10-16T08:48:35;5.37;;;1.07;;
37047;SDS011;23227;48.780;9.210;2022-10-16T08:51:43;4.73;;;1.20;;
37047;SDS011;23227;48.780;9.210;2022-10-16T08:54:48;5.67;;;1.37;;
37047;SDS011;23227;48.780;9.210;2022-10-16T08:57:54;8.10;;;1.00;;
37047;SDS011;23227;48.780;9.210;2022-10-16T09:00:57;5.47;;;1.08;;
37047;SDS011;23227;48.780;9.210;2022-10-16T09:07:28;2.20;;;1.00;;
37047;SDS011;23227;48.780;9.210;2022-10-16T09:10:38;6.10;;;1.20;;
37047;SDS011;23227;48.780;9.210;2022-10-16T09:13:47;1.83;;;1.30;;
37047;SDS011;23227;48.780;9.210;2022-10-16T09:16:53;4.13;;;1.20;;
37047;SDS011;23227;48.780;9.210;2022-10-16T09:20:03;1.63;;;1.13;;
37047;SDS011;23227;48.780;9.210;2022-10-16T09:23:17;3.10;;;1.17;;
37047;SDS011;23227;48.780;9.210;2022-10-16T09:26:21;4.13;;;1.10;;
37047;SDS011;23227;48.780;9.210;2022-10-16T09:29:28;7.43;;;2.13;;
37047;SDS011;23227;48.780;9.210;2022-10-16T09:32:31;4.60;;;1.50;;
37047;SDS011;23227;48.780;9.210;2022-10-16T09:38:40;2.83;;;1.50;;
37047;SDS011;23227;48.780;9.210;2022-10-16T09:41:43;6.93;;;1.10;;
37047;SDS011;23227;48.780;9.210;2022-10-16T09:44:47;6.97;;;1.50;;
37047;SDS011;23227;48.780;9.210;2022-10-16T09:47:51;2.57;;;0.83;;
37047;SDS011;23227;48.780;9.210;2022-10-16T09:50:59;10.83;;;1.40;;
37047;SDS011;23227;48.780;9.210;2022-10-16T09:54:12;7.90;;;2.20;;
37047;SDS011;23227;48.780;9.210;2022-10-16T09:57:16;1.87;;;1.10;;
37047;SDS011;23227;48.780;9.210;2022-10-16T10:00:19;3.05;;;1.13;;
37047;SDS011;23227;48.780;9.210;2022-10-16T10:03:30;1.93;;;1.17;;
37047;SDS011;23227;48.780;9.210;2022-10-16T10:06:37;4.00;;;1.20;;
37047;SDS011;23227;48.780;9.210;2022-10-16T10:09:44;3.43;;;1.23;;
37047;SDS011;23227;48.780;9.210;2022-10-16T10:12:48;4.93;;;1.30;;
37047;SDS011;23227;48.780;9.210;2022-10-16T10:15:50;4.20;;;2.25;;
37047;SDS011;23227;48.780;9.210;2022-10-16T10:22:00;5.37;;;0.93;;
37047;SDS011;23227;48.780;9.210;2022-10-16T10:28:42;1.37;;;1.00;;
37047;SDS011;23227;48.780;9.210;2022-10-16T10:31:52;1.57;;;0.93;;
37047;SDS011;23227;48.780;9.210;2022-10-16T10:35:03;3.63;;;1.37;;
37047;SDS011;23227;48.780;9.210;2022-10-16T10:38:16;1.03;;;0.80;;
37047;SDS011;23227;48.780;9.210;2022-10-16T10:45:11;5.63;;;1.10;;
37047;SDS011;23227;48.780;9.210;2022-10-16T10:48:21;5.25;;;1.20;;
37047;SDS011;23227;48.780;9.210;2022-10-16T10:51:36;7.57;;;1.50;;
37047;SDS011;23227;48.780;9.210;2022-10-16T10:54:45;2.97;;;1.30;;
37047;SDS011;23227;48.780;9.210;2022-10-16T10:57:57;6.05;;;1.08;;
37047;SDS011;23227;48.780;9.210;2022-10-16T11:01:08;3.35;;;1.05;;
37047;SDS011;23227;48.780;9.210;2022-10-16T11:04:19;5.40;;;1.20;;
37047;SDS011;23227;48.780;9.210;2022-10-16T11:07:32;2.58;;;0.93;;
37047;SDS011;23227;48.780;9.210;2022-10-16T11:10:40;3.55;;;0.98;;
37047;SDS011;23227;48.780;9.210;2022-10-16T11:13:51;3.33;;;0.93;;
37047;SDS011;23227;48.780;9.210;2022-10-16T11:16:58;2.47;;;0.85;;
37047;SDS011;23227;48.780;9.210;2022-10-16T11:20:05;1.77;;;1.10;;
37047;SDS011;23227;48.780;9.210;2022-10-16T11:23:16;3.30;;;0.98;;
37047;SDS011;23227;48.780;9.210;2022-10-16T11:26:21;1.83;;;0.98;;
37047;SDS011;23227;48.780;9.210;2022-10-16T11:29:28;7.07;;;1.10;;
37047;SDS011;23227;48.780;9.210;2022-10-16T11:32:33;3.45;;;0.90;;
37047;SDS011;23227;48.780;9.210;2022-10-16T11:35:52;3.88;;;0.88;;
37047;SDS011;23227;48.780;9.210;2022-10-16T11:38:57;1.42;;;0.75;;
37047;SDS011;23227;48.780;9.210;2022-10-16T11:42:04;2.53;;;1.20;;
37047;SDS011;23227;48.780;9.210;2022-10-16T11:45:15;4.05;;;1.23;;
37047;SDS011;23227;48.780;9.210;2022-10-16T11:48:27;3.28;;;1.10;;
37047;SDS011;23227;48.780;9.210;2022-10-16T11:51:35;1.20;;;0.90;;
37047;SDS011;23227;48.780;9.210;2022-10-16T11:54:41;1.88;;;1.15;;
37047;SDS011;23227;48.780;9.210;2022-10-16T11:57:48;2.17;;;0.80;;
37047;SDS011;23227;48.780;9.210;2022-10-16T12:00:55;1.67;;;0.88;;
37047;SDS011;23227;48.780;9.210;2022-10-16T12:04:05;0.85;;;0.65;;
37047;SDS011;23227;48.780;9.210;2022-10-16T12:07:14;1.77;;;0.70;;
37047;SDS011;23227;48.780;9.210;2022-10-16T12:10:20;3.10;;;0.70;;
37047;SDS011;23227;48.780;9.210;2022-10-16T12:13:29;4.43;;;0.88;;
37047;SDS011;23227;48.780;9.210;2022-10-16T12:16:38;3.75;;;1.10;;
37047;SDS011;23227;48.780;9.210;2022-10-16T12:19:41;1.73;;;0.88;;
37047;SDS011;23227;48.780;9.210;2022-10-16T12:22:47;1.80;;;0.77;;
37047;SDS011;23227;48.780;9.210;2022-10-16T12:25:53;2.92;;;0.90;;
37047;SDS011;23227;48.780;9.210;2022-10-16T12:29:08;5.88;;;0.90;;
37047;SDS011;23227;48.780;9.210;2022-10-16T12:32:25;1.88;;;0.80;;
37047;SDS011;23227;48.780;9.210;2022-10-16T12:42:00;3.78;;;1.33;;
37047;SDS011;23227;48.780;9.210;2022-10-16T12:45:13;4.88;;;0.80;;
37047;SDS011;23227;48.780;9.210;2022-10-16T12:48:28;1.40;;;0.80;;
37047;SDS011;23227;48.780;9.210;2022-10-16T12:51:49;1.38;;;0.95;;
37047;SDS011;23227;48.780;9.210;2022-10-16T12:54:55;2.60;;;0.70;;
37047;SDS011;23227;48.780;9.210;2022-10-16T12:58:03;1.23;;;0.88;;
37047;SDS011;23227;48.780;9.210;2022-10-16T13:01:16;4.85;;;0.82;;
37047;SDS011;23227;48.780;9.210;2022-10-16T13:07:48;5.35;;;1.10;;
37047;SDS011;23227;48.780;9.210;2022-10-16T13:11:00;3.20;;;1.00;;
37047;SDS011;23227;48.780;9.210;2022-10-16T13:17:32;5.13;;;1.30;;
37047;SDS011;23227;48.780;9.210;2022-10-16T13:20:46;4.22;;;0.80;;
37047;SDS011;23227;48.780;9.210;2022-10-16T13:23:57;1.95;;;0.70;;
37047;SDS011;23227;48.780;9.210;2022-10-16T13:27:05;1.30;;;1.17;;
37047;SDS011;23227;48.780;9.210;2022-10-16T13:30:11;2.60;;;0.90;;
37047;SDS011;23227;48.780;9.210;2022-10-16T13:33:17;1.90;;;0.80;;
37047;SDS011;23227;48.780;9.210;2022-10-16T13:36:22;1.40;;;0.88;;
37047;SDS011;23227;48.780;9.210;2022-10-16T13:39:27;2.40;;;1.00;;
37047;SDS011;23227;48.780;9.210;2022-10-16T13:42:30;3.85;;;0.80;;
37047;SDS011;23227;48.780;9.210;2022-10-16T13:45:34;1.55;;;0.88;;
37047;SDS011;23227;48.780;9.210;2022-10-16T13:48:37;1.60;;;0.80;;
37047;SDS011;23227;48.780;9.210;2022-10-16T13:51:47;2.15;;;0.90;;
37047;SDS011;23227;48.780;9.210;2022-10-16T13:54:56;1.45;;;0.80;;
37047;SDS011;23227;48.780;9.210;2022-10-16T13:58:07;1.48;;;0.80;;
37047;SDS011;23227;48.780;9.210;2022-10-16T14:01:15;3.25;;;0.90;;
37047;SDS011;23227;48.780;9.210;2022-10-16T14:04:19;1.10;;;0.80;;
37047;SDS011;23227;48.780;9.210;2022-10-16T14:07:24;3.03;;;1.27;;
37047;SDS011;23227;48.780;9.210;2022-10-16T14:10:29;5.40;;;0.80;;
37047;SDS011;23227;48.780;9.210;2022-10-16T14:13:34;1.77;;;1.00;;
37047;SDS011;23227;48.780;9.210;2022-10-16T14:16:40;4.60;;;1.25;;
37047;SDS011;23227;48.780;9.210;2022-10-16T14:19:46;11.48;;;6.40;;
37047;SDS011;23227;48.780;9.210;2022-10-16T14:23:00;5.05;;;1.80;;
37047;SDS011;23227;48.780;9.210;2022-10-16T14:26:14;2.92;;;1.65;;
37047;SDS011;23227;48.780;9.210;2022-10-16T14:29:18;3.63;;;1.45;;
37047;SDS011;23227;48.780;9.210;2022-10-16T14:32:23;5.25;;;2.25;;
37047;SDS011;23227;48.780;9.210;2022-10-16T14:35:28;6.38;;;2.67;;
37047;SDS011;23227;48.780;9.210;2022-10-16T14:38:33;5.80;;;2.45;;
37047;SDS011;23227;48.780;9.210;2022-10-16T14:41:40;13.23;;;2.40;;
37047;SDS011;23227;48.780;9.210;2022-10-16T14:44:47;10.27;;;2.67;;
37047;SDS011;23227;48.780;9.210;2022-10-16T14:47:50;10.18;;;5.25;;
37047;SDS011;23227;48.780;9.210;2022-10-16T14:50:55;13.65;;;6.38;;
37047;SDS011;23227;48.780;9.210;2022-10-16T14:53:59;21.30;;;8.45;;
37047;SDS011;23227;48.780;9.210;2022-10-16T14:57:03;10.65;;;4.43;;
37047;SDS011;23227;48.780;9.210;2022-10-16T15:00:13;6.95;;;3.33;;
37047;SDS011;23227;48.780;9.210;2022-10-16T15:03:18;7.07;;;2.88;;
37047;SDS011;23227;48.780;9.210;2022-10-16T15:09:25;7.60;;;2.70;;
37047;SDS011;23227;48.780;9.210;2022-10-16T15:12:28;11.07;;;2.83;;
37047;SDS011;23227;48.780;9.210;2022-10-16T15:15:32;10.25;;;3.03;;
37047;SDS011;23227;48.780;9.210;2022-10-16T15:18:37;15.55;;;3.35;;
37047;SDS011;23227;48.780;9.210;2022-10-16T15:24:43;3.65;;;1.70;;
37047;SDS011;23227;48.780;9.210;2022-10-16T15:27:46;4.78;;;2.05;;
37047;SDS011;23227;48.780;9.210;2022-10-16T15:33:53;10.82;;;2.13;;
37047;SDS011;23227;48.780;9.210;2022-10-16T15:37:02;4.30;;;1.60;;
37047;SDS011;23227;48.780;9.210;2022-10-16T15:40:07;9.57;;;2.25;;
37047;SDS011;23227;48.780;9.210;2022-10-16T15:43:10;18.02;;;1.60;;
37047;SDS011;23227;48.780;9.210;2022-10-16T15:46:13;7.07;;;2.20;;
37047;SDS011;23227;48.780;9.210;2022-10-16T15:49:16;11.85;;;2.90;;
37047;SDS011;23227;48.780;9.210;2022-10-16T15:52:19;12.68;;;2.80;;
37047;SDS011;23227;48.780;9.210;2022-10-16T15:58:27;5.17;;;2.13;;
37047;SDS011;23227;48.780;9.210;2022-10-16T16:01:31;8.70;;;2.47;;
37047;SDS011;23227;48.780;9.210;2022-10-16T16:04:35;7.60;;;2.97;;
37047;SDS011;23227;48.780;9.210;2022-10-16T16:07:44;13.13;;;4.33;;
37047;SDS011;23227;48.780;9.210;2022-10-16T16:10:58;19.67;;;6.78;;
37047;SDS011;23227;48.780;9.210;2022-10-16T16:14:01;13.17;;;5.87;;
37047;SDS011;23227;48.780;9.210;2022-10-16T16:17:03;12.52;;;4.30;;
37047;SDS011;23227;48.780;9.210;2022-10-16T16:20:08;6.72;;;3.67;;
37047;SDS011;23227;48.780;9.210;2022-10-16T16:23:12;18.50;;;2.70;;
37047;SDS011;23227;48.780;9.210;2022-10-16T16:26:21;12.45;;;4.30;;
37047;SDS011;23227;48.780;9.210;2022-10-16T16:29:27;8.43;;;3.70;;
37047;SDS011;23227;48.780;9.210;2022-10-16T16:32:30;11.52;;;3.92;;
37047;SDS011;23227;48.780;9.210;2022-10-16T16:35:33;11.85;;;4.15;;
37047;SDS011;23227;48.780;9.210;2022-10-16T16:38:35;8.60;;;3.42;;
37047;SDS011;23227;48.780;9.210;2022-10-16T16:41:40;11.80;;;3.70;;
37047;SDS011;23227;48.780;9.210;2022-10-16T16:44:43;11.17;;;3.37;;
37047;SDS011;23227;48.780;9.210;2022-10-16T16:47:46;10.40;;;3.45;;
37047;SDS011;23227;48.780;9.210;2022-10-16T16:50:49;6.57;;;2.80;;
37047;SDS011;23227;48.780;9.210;2022-10-16T16:53:52;7.45;;;2.70;;
37047;SDS011;23227;48.780;9.210;2022-10-16T16:56:57;10.63;;;3.40;;
37047;SDS011;23227;48.780;9.210;2022-10-16T16:59:59;15.80;;;4.50;;
37047;SDS011;23227;48.780;9.210;2022-10-16T17:03:03;8.37;;;3.90;;
37047;SDS011;23227;48.780;9.210;2022-10-16T17:06:06;6.72;;;3.67;;
37047;SDS011;23227;48.780;9.210;2022-10-16T17:09:10;9.00;;;3.60;;
37047;SDS011;23227;48.780;9.210;2022-10-16T17:12:17;11.50;;;3.47;;
37047;SDS011;23227;48.780;9.210;2022-10-16T17:15:20;14.80;;;4.27;;
37047;SDS011;23227;48.780;9.210;2022-10-16T17:18:23;8.52;;;4.60;;
37047;SDS011;23227;48.780;9.210;2022-10-16T17:21:26;12.02;;;4.68;;
37047;SDS011;23227;48.780;9.210;2022-10-16T17:24:30;9.80;;;5.50;;
37047;SDS011;23227;48.780;9.210;2022-10-16T17:27:35;12.38;;;4.45;;
37047;SDS011;23227;48.780;9.210;2022-10-16T17:30:38;7.07;;;3.00;;
37047;SDS011;23227;48.780;9.210;2022-10-16T17:33:41;9.00;;;2.47;;
37047;SDS011;23227;48.780;9.210;2022-10-16T17:36:45;8.47;;;3.17;;
37047;SDS011;23227;48.780;9.210;2022-10-16T17:39:49;4.43;;;2.13;;
37047;SDS011;23227;48.780;9.210;2022-10-16T17:42:53;10.83;;;2.83;;
37047;SDS011;23227;48.780;9.210;2022-10-16T17:45:56;7.63;;;2.30;;
37047;SDS011;23227;48.780;9.210;2022-10-16T17:48:58;3.28;;;2.20;;
37047;SDS011;23227;48.780;9.210;2022-10-16T17:52:01;6.60;;;2.13;;
37047;SDS011;23227;48.780;9.210;2022-10-16T17:55:07;5.03;;;2.40;;
37047;SDS011;23227;48.780;9.210;2022-10-16T17:58:12;11.67;;;3.13;;
37047;SDS011;23227;48.780;9.210;2022-10-16T18:01:16;6.97;;;3.20;;
37047;SDS011;23227;48.780;9.210;2022-10-16T18:04:20;12.60;;;3.17;;
37047;SDS011;23227;48.780;9.210;2022-10-16T18:10:26;6.37;;;3.10;;
37047;SDS011;23227;48.780;9.210;2022-10-16T18:13:30;6.22;;;3.03;;
37047;SDS011;23227;48.780;9.210;2022-10-16T18:16:33;7.07;;;2.60;;
37047;SDS011;23227;48.780;9.210;2022-10-16T18:19:39;8.03;;;2.70;;
37047;SDS011;23227;48.780;9.210;2022-10-16T18:22:42;5.45;;;3.22;;
37047;SDS011;23227;48.780;9.210;2022-10-16T18:25:48;5.10;;;2.55;;
37047;SDS011;23227;48.780;9.210;2022-10-16T18:28:53;12.53;;;2.60;;
37047;SDS011;23227;48.780;9.210;2022-10-16T18:31:57;10.10;;;3.50;;
37047;SDS011;23227;48.780;9.210;2022-10-16T18:35:00;15.68;;;3.30;;
37047;SDS011;23227;48.780;9.210;2022-10-16T18:38:03;9.68;;;3.80;;
37047;SDS011;23227;48.780;9.210;2022-10-16T18:41:06;7.72;;;3.15;;
37047;SDS011;23227;48.780;9.210;2022-10-16T18:44:10;16.45;;;3.45;;
37047;SDS011;23227;48.780;9.210;2022-10-16T18:47:14;11.73;;;5.03;;
37047;SDS011;23227;48.780;9.210;2022-10-16T18:50:18;15.32;;;6.30;;
37047;SDS011;23227;48.780;9.210;2022-10-16T18:53:21;14.47;;;6.67;;
37047;SDS011;23227;48.780;9.210;2022-10-16T18:56:23;17.75;;;5.13;;
37047;SDS011;23227;48.780;9.210;2022-10-16T19:02:31;17.40;;;7.40;;
37047;SDS011;23227;48.780;9.210;2022-10-16T19:05:40;15.03;;;4.67;;
37047;SDS011;23227;48.780;9.210;2022-10-16T19:08:46;9.90;;;4.33;;
37047;SDS011;23227;48.780;9.210;2022-10-16T19:11:49;9.88;;;3.20;;
37047;SDS011;23227;48.780;9.210;2022-10-16T19:14:59;9.17;;;2.87;;
37047;SDS011;23227;48.780;9.210;2022-10-16T19:18:04;13.17;;;3.77;;
37047;SDS011;23227;48.780;9.210;2022-10-16T19:21:07;14.85;;;3.97;;
37047;SDS011;23227;48.780;9.210;2022-10-16T19:24:11;7.73;;;3.80;;
37047;SDS011;23227;48.780;9.210;2022-10-16T19:27:15;11.83;;;4.13;;
37047;SDS011;23227;48.780;9.210;2022-10-16T19:30:20;10.90;;;3.28;;
37047;SDS011;23227;48.780;9.210;2022-10-16T19:33:23;13.30;;;3.60;;
37047;SDS011;23227;48.780;9.210;2022-10-16T19:36:27;11.18;;;3.55;;
37047;SDS011;23227;48.780;9.210;2022-10-16T19:39:30;13.83;;;3.33;;
37047;SDS011;23227;48.780;9.210;2022-10-16T19:42:33;17.77;;;4.40;;
37047;SDS011;23227;48.780;9.210;2022-10-16T19:45:39;21.13;;;4.70;;
37047;SDS011;23227;48.780;9.210;2022-10-16T19:48:42;11.73;;;3.80;;
37047;SDS011;23227;48.780;9.210;2022-10-16T19:51:46;11.55;;;3.97;;